Overview Statistics Trail Chart Weather Telemetry Raw packets
 

This is the latest recevied weather packets stored in our database for station/object S51FO-6. If no packets are shown the sender has not sent any weather packets the latest 10 day(s).

<< 1 2 3 4 5 6 7 >>
Time Temp. Humidity Pressure Rain* Wind** Luminosity Snow
1788511781 23.33° C 31% - 0 mm - - -
1788511186 22.78° C 31% - 0 mm - - -
1788510655 22.78° C 35% - 0 mm - - -
1788510600 22.78° C 35% - 0 mm - - -
1788509978 22.22° C 36% - 0 mm - - -
1788509389 21.67° C 43% - 0 mm - - -
1788507581 17.22° C 69% - 0 mm - - -
1788506980 16.11° C 72% - 0 mm - - -
1788506429 15° C 77% - 0 mm - - -
1788506383 15° C 77% - 0 mm - - -
1788505778 13.33° C 86% - 0 mm - - -
1788504582 11.11° C 87% - 0 mm - - -
1788503982 8.33° C 86% - 0 mm - - -
1788503390 7.22° C 85% - 0 mm - - -
1788502778 6.11° C 85% - 0 mm - - -
1788502198 5.56° C 85% - 0 mm - - -
1788501578 5° C 85% - 0 mm - - -
1788500978 4.44° C 85% - 0 mm - - -
1788500378 4.44° C 85% - 0 mm - - -
1788499178 3.89° C 85% - 0 mm - - -
1788498581 3.33° C 85% - 0 mm - - -
1788497981 2.78° C 85% - 0 mm - - -
1788497384 2.78° C 85% - 0 mm - - -
1788496781 2.78° C 85% - 0 mm - - -
1788495581 2.78° C 84% - 0 mm - - -

* Rain latest hour (hover to see other rain measurements)
** Current wind speed in m/s (hover to see current wind gust speed)